world map with GAY marked

GAY - Airport

This information may not be accurate or current and is not valid for navigation or flight planning. No warranty of fitness for any purpose is made or implied.

flag of India

Donate via PayPal

Additional information is available on the NEW Great Circle Mapper

Location
City:  Gaya, Bihar, India
Near (Alt.):Bodhgaya
ICAO / IATA:VEGY / GAY

Details
Type:Airport (Aerodrome, Airfield)
Latitude:24°44'40"N (24.744308)
Longitude:84°57'04"E (84.951175)
Datum:WGS 1984
Elevation:380 ft (116 m)
Runways:1
Longest:7500 × 148 ft (2286 × 45 m)

Time
Timezone:UTC+5:30 (DST+7:30)
Local Time:

Weather
METAR:VEGY  181400Z 36002KT 2500 HZ FEW100 BKN250 15/09 Q1019
TAF:VEGY  (expired)

Related Locations
Nearby:
Farthest:IPC: 11537 mi / 18567 km
Easter Island (Isla de Pascua, Rapa Nui) [Mataveri Intl], VS, CL

Find:

   beyond  
but within

Other Information
Maps:
Sources:

  


 


Great Circle Mapper   Great Circle Mapper
Great Circle Mapper FAQ   Great Circle Mapper FAQ
  Karl's Home Page
KLSē   KLSē Home
   GC on Facebook
Airlines of the World   Airlines of the World
Donate via PayPal


Copyright © 2004-2017, Karl L. Swartz. All rights reserved.
All trademarks mentioned herein belong to their respective owners.

Please see credits for attribution and copyright information.

Karl Swartz <karl@kls2.com>
  Powered by FreeBSD
Valid HTML 4.01!
Labeled with ICRA
hCard Microformat
Geo Microformat